sensor_id;sensor_type;location;lat;lon;timestamp;P1;durP1;ratioP1;P2;durP2;ratioP2
21615;SDS011;10970;48.714;9.584;2022-08-19T00:00:08;19.77;;;17.77;;
21615;SDS011;10970;48.714;9.584;2022-08-19T00:02:35;19.20;;;17.50;;
21615;SDS011;10970;48.714;9.584;2022-08-19T00:05:01;20.53;;;18.73;;
21615;SDS011;10970;48.714;9.584;2022-08-19T00:07:28;19.90;;;18.00;;
21615;SDS011;10970;48.714;9.584;2022-08-19T00:09:54;23.90;;;21.13;;
21615;SDS011;10970;48.714;9.584;2022-08-19T00:12:19;20.37;;;18.50;;
21615;SDS011;10970;48.714;9.584;2022-08-19T00:14:45;19.47;;;17.67;;
21615;SDS011;10970;48.714;9.584;2022-08-19T00:17:11;19.60;;;18.00;;
21615;SDS011;10970;48.714;9.584;2022-08-19T00:19:37;20.93;;;18.90;;
21615;SDS011;10970;48.714;9.584;2022-08-19T00:22:03;21.40;;;19.40;;
21615;SDS011;10970;48.714;9.584;2022-08-19T00:24:30;23.57;;;21.00;;
21615;SDS011;10970;48.714;9.584;2022-08-19T00:26:56;22.87;;;20.77;;
21615;SDS011;10970;48.714;9.584;2022-08-19T00:29:22;22.13;;;19.80;;
21615;SDS011;10970;48.714;9.584;2022-08-19T00:31:49;24.00;;;21.67;;
21615;SDS011;10970;48.714;9.584;2022-08-19T00:34:19;20.93;;;19.00;;
21615;SDS011;10970;48.714;9.584;2022-08-19T00:36:46;20.97;;;19.07;;
21615;SDS011;10970;48.714;9.584;2022-08-19T00:39:13;22.77;;;20.67;;
21615;SDS011;10970;48.714;9.584;2022-08-19T00:41:40;22.03;;;19.93;;
21615;SDS011;10970;48.714;9.584;2022-08-19T00:44:14;24.03;;;21.63;;
21615;SDS011;10970;48.714;9.584;2022-08-19T00:46:49;26.00;;;23.33;;
21615;SDS011;10970;48.714;9.584;2022-08-19T00:51:51;27.20;;;24.50;;
21615;SDS011;10970;48.714;9.584;2022-08-19T00:54:22;23.23;;;21.23;;
21615;SDS011;10970;48.714;9.584;2022-08-19T00:56:48;24.60;;;22.10;;
21615;SDS011;10970;48.714;9.584;2022-08-19T00:59:15;26.23;;;23.67;;
21615;SDS011;10970;48.714;9.584;2022-08-19T01:01:43;25.77;;;23.27;;
21615;SDS011;10970;48.714;9.584;2022-08-19T01:04:10;24.13;;;21.70;;
21615;SDS011;10970;48.714;9.584;2022-08-19T01:06:37;26.47;;;23.60;;
21615;SDS011;10970;48.714;9.584;2022-08-19T01:09:04;25.20;;;22.70;;
21615;SDS011;10970;48.714;9.584;2022-08-19T01:11:31;27.17;;;24.77;;
21615;SDS011;10970;48.714;9.584;2022-08-19T01:14:00;26.17;;;23.67;;
21615;SDS011;10970;48.714;9.584;2022-08-19T01:16:26;24.30;;;21.97;;
21615;SDS011;10970;48.714;9.584;2022-08-19T01:18:54;25.83;;;23.37;;
21615;SDS011;10970;48.714;9.584;2022-08-19T01:23:46;26.73;;;24.23;;
21615;SDS011;10970;48.714;9.584;2022-08-19T01:26:17;22.83;;;20.77;;
21615;SDS011;10970;48.714;9.584;2022-08-19T01:28:46;24.47;;;22.03;;
21615;SDS011;10970;48.714;9.584;2022-08-19T01:31:16;24.57;;;22.27;;
21615;SDS011;10970;48.714;9.584;2022-08-19T01:33:44;26.80;;;23.97;;
21615;SDS011;10970;48.714;9.584;2022-08-19T01:36:13;27.37;;;24.60;;
21615;SDS011;10970;48.714;9.584;2022-08-19T01:38:42;26.53;;;23.87;;
21615;SDS011;10970;48.714;9.584;2022-08-19T01:41:09;25.33;;;22.77;;
21615;SDS011;10970;48.714;9.584;2022-08-19T01:43:36;24.10;;;21.60;;
21615;SDS011;10970;48.714;9.584;2022-08-19T01:46:02;24.27;;;21.77;;
21615;SDS011;10970;48.714;9.584;2022-08-19T01:48:32;23.20;;;21.10;;
21615;SDS011;10970;48.714;9.584;2022-08-19T01:50:59;23.80;;;21.50;;
21615;SDS011;10970;48.714;9.584;2022-08-19T01:53:25;27.30;;;23.50;;
21615;SDS011;10970;48.714;9.584;2022-08-19T01:55:51;25.20;;;22.57;;
21615;SDS011;10970;48.714;9.584;2022-08-19T01:58:23;25.70;;;23.23;;
21615;SDS011;10970;48.714;9.584;2022-08-19T02:01:01;24.83;;;21.53;;
21615;SDS011;10970;48.714;9.584;2022-08-19T02:03:27;26.70;;;23.57;;
21615;SDS011;10970;48.714;9.584;2022-08-19T02:05:55;25.53;;;22.93;;
21615;SDS011;10970;48.714;9.584;2022-08-19T02:08:22;26.27;;;22.80;;
21615;SDS011;10970;48.714;9.584;2022-08-19T02:10:48;25.33;;;22.63;;
21615;SDS011;10970;48.714;9.584;2022-08-19T02:13:14;29.37;;;24.80;;
21615;SDS011;10970;48.714;9.584;2022-08-19T02:15:40;28.30;;;25.50;;
21615;SDS011;10970;48.714;9.584;2022-08-19T02:18:06;25.13;;;22.63;;
21615;SDS011;10970;48.714;9.584;2022-08-19T02:20:33;23.60;;;21.30;;
21615;SDS011;10970;48.714;9.584;2022-08-19T02:22:59;26.33;;;23.37;;
21615;SDS011;10970;48.714;9.584;2022-08-19T02:25:26;24.20;;;21.70;;
21615;SDS011;10970;48.714;9.584;2022-08-19T02:27:52;23.60;;;21.30;;
21615;SDS011;10970;48.714;9.584;2022-08-19T02:30:19;32.83;;;21.80;;
21615;SDS011;10970;48.714;9.584;2022-08-19T02:32:45;21.97;;;19.67;;
21615;SDS011;10970;48.714;9.584;2022-08-19T02:35:14;24.30;;;21.70;;
21615;SDS011;10970;48.714;9.584;2022-08-19T02:37:41;24.23;;;21.83;;
21615;SDS011;10970;48.714;9.584;2022-08-19T02:40:26;26.47;;;21.87;;
21615;SDS011;10970;48.714;9.584;2022-08-19T02:42:52;25.23;;;22.17;;
21615;SDS011;10970;48.714;9.584;2022-08-19T02:45:18;26.40;;;22.37;;
21615;SDS011;10970;48.714;9.584;2022-08-19T02:47:44;22.43;;;20.23;;
21615;SDS011;10970;48.714;9.584;2022-08-19T02:50:10;26.03;;;23.40;;
21615;SDS011;10970;48.714;9.584;2022-08-19T02:52:36;24.90;;;22.20;;
21615;SDS011;10970;48.714;9.584;2022-08-19T02:55:02;26.90;;;23.33;;
21615;SDS011;10970;48.714;9.584;2022-08-19T02:57:29;24.20;;;21.70;;
21615;SDS011;10970;48.714;9.584;2022-08-19T02:59:56;26.53;;;23.73;;
21615;SDS011;10970;48.714;9.584;2022-08-19T03:02:22;26.93;;;22.23;;
21615;SDS011;10970;48.714;9.584;2022-08-19T03:04:48;25.50;;;23.00;;
21615;SDS011;10970;48.714;9.584;2022-08-19T03:07:14;25.20;;;22.63;;
21615;SDS011;10970;48.714;9.584;2022-08-19T03:09:40;26.70;;;23.90;;
21615;SDS011;10970;48.714;9.584;2022-08-19T03:12:07;27.57;;;23.67;;
21615;SDS011;10970;48.714;9.584;2022-08-19T03:14:34;25.13;;;22.63;;
21615;SDS011;10970;48.714;9.584;2022-08-19T03:17:00;25.23;;;22.80;;
21615;SDS011;10970;48.714;9.584;2022-08-19T03:19:26;27.77;;;22.87;;
21615;SDS011;10970;48.714;9.584;2022-08-19T03:21:52;24.93;;;22.30;;
21615;SDS011;10970;48.714;9.584;2022-08-19T03:24:18;26.20;;;23.60;;
21615;SDS011;10970;48.714;9.584;2022-08-19T03:26:50;26.40;;;23.87;;
21615;SDS011;10970;48.714;9.584;2022-08-19T03:29:23;27.20;;;23.13;;
21615;SDS011;10970;48.714;9.584;2022-08-19T03:31:50;26.60;;;24.00;;
21615;SDS011;10970;48.714;9.584;2022-08-19T03:34:24;28.83;;;24.47;;
21615;SDS011;10970;48.714;9.584;2022-08-19T03:36:54;24.47;;;22.13;;
21615;SDS011;10970;48.714;9.584;2022-08-19T03:39:22;26.00;;;23.07;;
21615;SDS011;10970;48.714;9.584;2022-08-19T03:41:49;24.77;;;22.23;;
21615;SDS011;10970;48.714;9.584;2022-08-19T03:44:18;26.60;;;23.80;;
21615;SDS011;10970;48.714;9.584;2022-08-19T03:46:54;24.97;;;22.27;;
21615;SDS011;10970;48.714;9.584;2022-08-19T03:49:21;26.87;;;24.27;;
21615;SDS011;10970;48.714;9.584;2022-08-19T03:51:48;26.83;;;23.23;;
21615;SDS011;10970;48.714;9.584;2022-08-19T03:54:16;26.77;;;24.10;;
21615;SDS011;10970;48.714;9.584;2022-08-19T03:56:44;25.77;;;23.07;;
21615;SDS011;10970;48.714;9.584;2022-08-19T03:59:13;29.73;;;23.27;;
21615;SDS011;10970;48.714;9.584;2022-08-19T04:01:43;30.43;;;22.70;;
21615;SDS011;10970;48.714;9.584;2022-08-19T04:04:09;25.53;;;22.93;;
21615;SDS011;10970;48.714;9.584;2022-08-19T04:06:36;25.87;;;23.27;;
21615;SDS011;10970;48.714;9.584;2022-08-19T04:09:04;29.27;;;23.00;;
21615;SDS011;10970;48.714;9.584;2022-08-19T04:11:34;27.70;;;24.80;;
21615;SDS011;10970;48.714;9.584;2022-08-19T04:14:22;23.47;;;20.97;;
21615;SDS011;10970;48.714;9.584;2022-08-19T04:16:50;30.77;;;26.00;;
21615;SDS011;10970;48.714;9.584;2022-08-19T04:19:17;25.90;;;22.40;;
21615;SDS011;10970;48.714;9.584;2022-08-19T04:21:44;25.23;;;22.70;;
21615;SDS011;10970;48.714;9.584;2022-08-19T04:24:13;25.70;;;23.00;;
21615;SDS011;10970;48.714;9.584;2022-08-19T04:26:39;28.97;;;23.93;;
21615;SDS011;10970;48.714;9.584;2022-08-19T04:29:07;26.17;;;23.43;;
21615;SDS011;10970;48.714;9.584;2022-08-19T04:31:34;32.73;;;22.23;;
21615;SDS011;10970;48.714;9.584;2022-08-19T04:34:01;28.63;;;23.83;;
21615;SDS011;10970;48.714;9.584;2022-08-19T04:36:33;29.63;;;24.80;;
21615;SDS011;10970;48.714;9.584;2022-08-19T04:39:05;28.03;;;25.17;;
21615;SDS011;10970;48.714;9.584;2022-08-19T04:41:36;25.63;;;23.03;;
21615;SDS011;10970;48.714;9.584;2022-08-19T04:44:20;30.00;;;24.57;;
21615;SDS011;10970;48.714;9.584;2022-08-19T04:46:47;29.53;;;24.50;;
21615;SDS011;10970;48.714;9.584;2022-08-19T04:49:14;25.20;;;22.50;;
21615;SDS011;10970;48.714;9.584;2022-08-19T04:51:42;27.60;;;24.70;;
21615;SDS011;10970;48.714;9.584;2022-08-19T04:54:10;28.83;;;24.60;;
21615;SDS011;10970;48.714;9.584;2022-08-19T04:56:36;26.97;;;23.90;;
21615;SDS011;10970;48.714;9.584;2022-08-19T04:59:03;25.43;;;22.63;;
21615;SDS011;10970;48.714;9.584;2022-08-19T05:01:29;24.30;;;21.87;;
21615;SDS011;10970;48.714;9.584;2022-08-19T05:04:01;24.33;;;21.63;;
21615;SDS011;10970;48.714;9.584;2022-08-19T05:06:29;25.27;;;22.23;;
21615;SDS011;10970;48.714;9.584;2022-08-19T05:08:56;26.70;;;23.90;;
21615;SDS011;10970;48.714;9.584;2022-08-19T05:11:23;25.13;;;21.77;;
21615;SDS011;10970;48.714;9.584;2022-08-19T05:13:54;30.30;;;22.80;;
21615;SDS011;10970;48.714;9.584;2022-08-19T05:16:21;26.80;;;23.23;;
21615;SDS011;10970;48.714;9.584;2022-08-19T05:18:48;29.03;;;22.50;;
21615;SDS011;10970;48.714;9.584;2022-08-19T05:21:33;29.53;;;23.17;;
21615;SDS011;10970;48.714;9.584;2022-08-19T05:24:22;30.47;;;24.23;;
21615;SDS011;10970;48.714;9.584;2022-08-19T05:26:48;27.40;;;23.07;;
21615;SDS011;10970;48.714;9.584;2022-08-19T05:29:17;29.10;;;23.40;;
21615;SDS011;10970;48.714;9.584;2022-08-19T05:31:45;27.60;;;23.27;;
21615;SDS011;10970;48.714;9.584;2022-08-19T05:34:14;26.40;;;23.57;;
21615;SDS011;10970;48.714;9.584;2022-08-19T05:36:41;26.30;;;23.40;;
21615;SDS011;10970;48.714;9.584;2022-08-19T05:39:09;24.47;;;21.60;;
21615;SDS011;10970;48.714;9.584;2022-08-19T05:41:44;26.80;;;22.80;;
21615;SDS011;10970;48.714;9.584;2022-08-19T05:44:13;26.80;;;23.43;;
21615;SDS011;10970;48.714;9.584;2022-08-19T05:46:39;26.67;;;23.40;;
21615;SDS011;10970;48.714;9.584;2022-08-19T05:49:06;27.77;;;24.73;;
21615;SDS011;10970;48.714;9.584;2022-08-19T05:51:33;22.43;;;20.23;;
21615;SDS011;10970;48.714;9.584;2022-08-19T05:54:01;25.77;;;22.53;;
21615;SDS011;10970;48.714;9.584;2022-08-19T05:56:27;27.83;;;24.63;;
21615;SDS011;10970;48.714;9.584;2022-08-19T05:58:55;27.77;;;24.40;;
21615;SDS011;10970;48.714;9.584;2022-08-19T06:01:23;28.57;;;24.80;;
21615;SDS011;10970;48.714;9.584;2022-08-19T06:03:50;25.20;;;22.43;;
21615;SDS011;10970;48.714;9.584;2022-08-19T06:06:17;25.27;;;22.57;;
21615;SDS011;10970;48.714;9.584;2022-08-19T06:08:44;28.03;;;25.17;;
21615;SDS011;10970;48.714;9.584;2022-08-19T06:13:40;25.73;;;23.03;;
21615;SDS011;10970;48.714;9.584;2022-08-19T06:16:06;26.47;;;23.53;;
21615;SDS011;10970;48.714;9.584;2022-08-19T06:18:32;31.03;;;23.50;;
21615;SDS011;10970;48.714;9.584;2022-08-19T06:20:58;30.10;;;24.33;;
21615;SDS011;10970;48.714;9.584;2022-08-19T06:23:25;26.27;;;23.30;;
21615;SDS011;10970;48.714;9.584;2022-08-19T06:25:50;29.30;;;26.10;;
21615;SDS011;10970;48.714;9.584;2022-08-19T06:28:16;28.10;;;25.07;;
21615;SDS011;10970;48.714;9.584;2022-08-19T06:30:42;26.30;;;23.57;;
21615;SDS011;10970;48.714;9.584;2022-08-19T06:33:07;27.60;;;24.60;;
21615;SDS011;10970;48.714;9.584;2022-08-19T06:35:37;27.50;;;23.80;;
21615;SDS011;10970;48.714;9.584;2022-08-19T06:38:04;24.97;;;22.30;;
21615;SDS011;10970;48.714;9.584;2022-08-19T06:40:30;27.97;;;22.03;;
21615;SDS011;10970;48.714;9.584;2022-08-19T06:42:56;25.53;;;22.93;;
21615;SDS011;10970;48.714;9.584;2022-08-19T06:45:23;30.17;;;23.13;;
21615;SDS011;10970;48.714;9.584;2022-08-19T06:47:49;26.70;;;24.10;;
21615;SDS011;10970;48.714;9.584;2022-08-19T06:50:17;25.77;;;22.90;;
21615;SDS011;10970;48.714;9.584;2022-08-19T06:52:43;27.03;;;22.37;;
21615;SDS011;10970;48.714;9.584;2022-08-19T06:55:09;26.20;;;21.80;;
21615;SDS011;10970;48.714;9.584;2022-08-19T06:57:34;24.53;;;22.03;;
21615;SDS011;10970;48.714;9.584;2022-08-19T07:00:00;30.00;;;23.77;;
21615;SDS011;10970;48.714;9.584;2022-08-19T07:02:26;27.10;;;23.53;;
21615;SDS011;10970;48.714;9.584;2022-08-19T07:04:52;26.30;;;22.83;;
21615;SDS011;10970;48.714;9.584;2022-08-19T07:07:19;27.20;;;23.90;;
21615;SDS011;10970;48.714;9.584;2022-08-19T07:09:46;28.67;;;24.77;;
21615;SDS011;10970;48.714;9.584;2022-08-19T07:12:13;30.57;;;25.17;;
21615;SDS011;10970;48.714;9.584;2022-08-19T07:14:42;28.10;;;24.47;;
21615;SDS011;10970;48.714;9.584;2022-08-19T07:17:11;26.47;;;23.67;;
21615;SDS011;10970;48.714;9.584;2022-08-19T07:19:38;29.63;;;24.40;;
21615;SDS011;10970;48.714;9.584;2022-08-19T07:22:05;28.13;;;24.97;;
21615;SDS011;10970;48.714;9.584;2022-08-19T07:24:32;32.53;;;25.97;;
21615;SDS011;10970;48.714;9.584;2022-08-19T07:26:59;30.53;;;25.13;;
21615;SDS011;10970;48.714;9.584;2022-08-19T07:29:28;27.90;;;24.80;;
21615;SDS011;10970;48.714;9.584;2022-08-19T07:31:55;27.77;;;24.50;;
21615;SDS011;10970;48.714;9.584;2022-08-19T07:34:22;29.37;;;26.20;;
21615;SDS011;10970;48.714;9.584;2022-08-19T07:36:49;30.40;;;27.10;;
21615;SDS011;10970;48.714;9.584;2022-08-19T07:39:17;29.37;;;26.50;;
21615;SDS011;10970;48.714;9.584;2022-08-19T07:41:48;29.90;;;26.03;;
21615;SDS011;10970;48.714;9.584;2022-08-19T07:44:15;28.17;;;23.87;;
21615;SDS011;10970;48.714;9.584;2022-08-19T07:46:43;28.20;;;25.23;;
21615;SDS011;10970;48.714;9.584;2022-08-19T07:49:11;31.47;;;25.50;;
21615;SDS011;10970;48.714;9.584;2022-08-19T07:51:55;34.70;;;25.77;;
21615;SDS011;10970;48.714;9.584;2022-08-19T07:54:23;30.03;;;26.30;;
21615;SDS011;10970;48.714;9.584;2022-08-19T07:56:52;31.47;;;27.07;;
21615;SDS011;10970;48.714;9.584;2022-08-19T07:59:18;29.63;;;24.93;;
21615;SDS011;10970;48.714;9.584;2022-08-19T08:01:46;32.03;;;25.60;;
21615;SDS011;10970;48.714;9.584;2022-08-19T08:04:12;33.50;;;28.33;;
21615;SDS011;10970;48.714;9.584;2022-08-19T08:06:57;30.10;;;25.83;;
21615;SDS011;10970;48.714;9.584;2022-08-19T08:09:42;30.67;;;27.20;;
21615;SDS011;10970;48.714;9.584;2022-08-19T08:12:10;32.43;;;26.27;;
21615;SDS011;10970;48.714;9.584;2022-08-19T08:14:49;31.93;;;27.20;;
21615;SDS011;10970;48.714;9.584;2022-08-19T08:17:21;31.90;;;26.50;;
21615;SDS011;10970;48.714;9.584;2022-08-19T08:19:48;28.80;;;25.73;;
21615;SDS011;10970;48.714;9.584;2022-08-19T08:22:17;32.33;;;27.87;;
21615;SDS011;10970;48.714;9.584;2022-08-19T08:25:14;33.73;;;25.53;;
21615;SDS011;10970;48.714;9.584;2022-08-19T08:27:43;30.10;;;26.90;;
21615;SDS011;10970;48.714;9.584;2022-08-19T08:30:11;31.97;;;28.70;;
21615;SDS011;10970;48.714;9.584;2022-08-19T08:32:43;30.23;;;26.37;;
21615;SDS011;10970;48.714;9.584;2022-08-19T08:35:10;33.03;;;26.43;;
21615;SDS011;10970;48.714;9.584;2022-08-19T08:37:39;32.27;;;27.93;;
21615;SDS011;10970;48.714;9.584;2022-08-19T08:40:28;32.07;;;27.20;;
21615;SDS011;10970;48.714;9.584;2022-08-19T08:43:09;31.10;;;27.83;;
21615;SDS011;10970;48.714;9.584;2022-08-19T08:46:42;29.93;;;26.83;;
21615;SDS011;10970;48.714;9.584;2022-08-19T08:52:17;36.20;;;29.30;;
21615;SDS011;10970;48.714;9.584;2022-08-19T08:54:42;30.00;;;26.47;;
21615;SDS011;10970;48.714;9.584;2022-08-19T08:57:15;32.07;;;28.03;;
21615;SDS011;10970;48.714;9.584;2022-08-19T08:59:56;31.30;;;26.43;;
21615;SDS011;10970;48.714;9.584;2022-08-19T09:02:25;31.60;;;27.50;;
21615;SDS011;10970;48.714;9.584;2022-08-19T09:04:51;29.03;;;25.87;;
21615;SDS011;10970;48.714;9.584;2022-08-19T09:10:21;34.97;;;26.87;;
21615;SDS011;10970;48.714;9.584;2022-08-19T09:13:56;29.90;;;26.70;;
21615;SDS011;10970;48.714;9.584;2022-08-19T09:16:02;29.53;;;26.30;;
21615;SDS011;10970;48.714;9.584;2022-08-19T09:18:38;34.80;;;26.80;;
21615;SDS011;10970;48.714;9.584;2022-08-19T09:21:14;37.07;;;27.70;;
21615;SDS011;10970;48.714;9.584;2022-08-19T09:23:40;33.20;;;29.40;;
21615;SDS011;10970;48.714;9.584;2022-08-19T09:26:08;32.10;;;28.70;;
21615;SDS011;10970;48.714;9.584;2022-08-19T09:28:42;29.73;;;26.63;;
21615;SDS011;10970;48.714;9.584;2022-08-19T09:31:10;32.23;;;28.90;;
21615;SDS011;10970;48.714;9.584;2022-08-19T09:33:40;31.63;;;28.23;;
21615;SDS011;10970;48.714;9.584;2022-08-19T09:36:09;31.27;;;28.07;;
21615;SDS011;10970;48.714;9.584;2022-08-19T09:38:38;34.70;;;29.27;;
21615;SDS011;10970;48.714;9.584;2022-08-19T09:41:06;31.67;;;27.00;;
21615;SDS011;10970;48.714;9.584;2022-08-19T09:43:33;32.30;;;28.07;;
21615;SDS011;10970;48.714;9.584;2022-08-19T09:46:04;37.07;;;28.07;;
21615;SDS011;10970;48.714;9.584;2022-08-19T09:48:34;31.93;;;28.47;;
21615;SDS011;10970;48.714;9.584;2022-08-19T09:51:07;31.87;;;27.67;;
21615;SDS011;10970;48.714;9.584;2022-08-19T09:53:36;38.50;;;28.00;;
21615;SDS011;10970;48.714;9.584;2022-08-19T09:56:03;32.77;;;27.13;;
21615;SDS011;10970;48.714;9.584;2022-08-19T09:58:30;30.53;;;27.27;;
21615;SDS011;10970;48.714;9.584;2022-08-19T10:00:57;29.53;;;26.27;;
21615;SDS011;10970;48.714;9.584;2022-08-19T10:03:25;31.43;;;27.10;;
21615;SDS011;10970;48.714;9.584;2022-08-19T10:05:52;31.40;;;25.93;;
21615;SDS011;10970;48.714;9.584;2022-08-19T10:08:19;32.33;;;28.47;;
21615;SDS011;10970;48.714;9.584;2022-08-19T10:10:48;30.70;;;27.40;;
21615;SDS011;10970;48.714;9.584;2022-08-19T10:13:16;30.50;;;27.23;;
21615;SDS011;10970;48.714;9.584;2022-08-19T10:15:50;34.47;;;26.87;;
21615;SDS011;10970;48.714;9.584;2022-08-19T10:18:17;32.10;;;27.60;;
21615;SDS011;10970;48.714;9.584;2022-08-19T10:20:44;31.37;;;26.07;;
21615;SDS011;10970;48.714;9.584;2022-08-19T10:23:13;30.13;;;26.93;;
21615;SDS011;10970;48.714;9.584;2022-08-19T10:25:40;29.53;;;26.40;;
21615;SDS011;10970;48.714;9.584;2022-08-19T10:28:07;28.10;;;25.03;;
21615;SDS011;10970;48.714;9.584;2022-08-19T10:30:36;30.43;;;27.17;;
21615;SDS011;10970;48.714;9.584;2022-08-19T10:33:03;30.97;;;26.03;;
21615;SDS011;10970;48.714;9.584;2022-08-19T10:35:30;29.40;;;25.50;;
21615;SDS011;10970;48.714;9.584;2022-08-19T10:37:56;31.00;;;27.17;;
21615;SDS011;10970;48.714;9.584;2022-08-19T10:40:26;28.13;;;25.20;;
21615;SDS011;10970;48.714;9.584;2022-08-19T10:42:53;26.23;;;23.57;;
21615;SDS011;10970;48.714;9.584;2022-08-19T10:45:20;29.10;;;25.23;;
21615;SDS011;10970;48.714;9.584;2022-08-19T10:47:48;26.63;;;23.83;;
21615;SDS011;10970;48.714;9.584;2022-08-19T10:50:14;29.13;;;24.13;;
21615;SDS011;10970;48.714;9.584;2022-08-19T10:53:02;27.60;;;24.80;;
21615;SDS011;10970;48.714;9.584;2022-08-19T10:55:30;27.27;;;24.37;;
21615;SDS011;10970;48.714;9.584;2022-08-19T10:58:15;28.93;;;22.93;;
21615;SDS011;10970;48.714;9.584;2022-08-19T11:00:51;27.80;;;24.80;;
21615;SDS011;10970;48.714;9.584;2022-08-19T11:03:18;28.93;;;25.90;;
21615;SDS011;10970;48.714;9.584;2022-08-19T11:05:44;28.70;;;25.60;;
21615;SDS011;10970;48.714;9.584;2022-08-19T11:08:10;30.70;;;24.03;;
21615;SDS011;10970;48.714;9.584;2022-08-19T11:10:36;30.93;;;26.70;;
21615;SDS011;10970;48.714;9.584;2022-08-19T11:13:06;33.30;;;26.57;;
21615;SDS011;10970;48.714;9.584;2022-08-19T11:15:31;29.20;;;26.20;;
21615;SDS011;10970;48.714;9.584;2022-08-19T11:17:58;27.77;;;24.40;;
21615;SDS011;10970;48.714;9.584;2022-08-19T11:20:23;29.17;;;25.17;;
21615;SDS011;10970;48.714;9.584;2022-08-19T11:22:51;28.33;;;24.90;;
21615;SDS011;10970;48.714;9.584;2022-08-19T11:25:18;32.90;;;26.87;;
21615;SDS011;10970;48.714;9.584;2022-08-19T11:27:44;26.30;;;23.57;;
21615;SDS011;10970;48.714;9.584;2022-08-19T11:30:11;28.70;;;22.90;;
21615;SDS011;10970;48.714;9.584;2022-08-19T11:32:40;27.63;;;23.40;;
21615;SDS011;10970;48.714;9.584;2022-08-19T11:35:06;28.67;;;25.37;;
21615;SDS011;10970;48.714;9.584;2022-08-19T11:37:32;29.40;;;26.13;;
21615;SDS011;10970;48.714;9.584;2022-08-19T11:40:02;27.07;;;24.17;;
21615;SDS011;10970;48.714;9.584;2022-08-19T11:42:29;27.20;;;24.37;;
21615;SDS011;10970;48.714;9.584;2022-08-19T11:45:13;33.47;;;27.50;;
21615;SDS011;10970;48.714;9.584;2022-08-19T11:47:39;29.23;;;26.07;;
21615;SDS011;10970;48.714;9.584;2022-08-19T11:50:04;31.67;;;27.53;;
21615;SDS011;10970;48.714;9.584;2022-08-19T11:52:30;28.03;;;25.03;;
21615;SDS011;10970;48.714;9.584;2022-08-19T11:54:56;29.77;;;26.30;;
21615;SDS011;10970;48.714;9.584;2022-08-19T11:57:22;33.43;;;29.97;;
21615;SDS011;10970;48.714;9.584;2022-08-19T11:59:51;34.87;;;29.57;;
21615;SDS011;10970;48.714;9.584;2022-08-19T12:02:17;33.23;;;29.00;;
21615;SDS011;10970;48.714;9.584;2022-08-19T12:04:44;36.87;;;30.30;;
21615;SDS011;10970;48.714;9.584;2022-08-19T12:07:09;31.00;;;26.80;;
21615;SDS011;10970;48.714;9.584;2022-08-19T12:09:35;36.70;;;29.20;;
21615;SDS011;10970;48.714;9.584;2022-08-19T12:12:01;32.50;;;28.27;;
21615;SDS011;10970;48.714;9.584;2022-08-19T12:14:30;36.80;;;28.10;;
21615;SDS011;10970;48.714;9.584;2022-08-19T12:16:55;35.93;;;31.73;;
21615;SDS011;10970;48.714;9.584;2022-08-19T12:19:21;34.47;;;29.00;;
21615;SDS011;10970;48.714;9.584;2022-08-19T12:21:47;35.57;;;29.13;;
21615;SDS011;10970;48.714;9.584;2022-08-19T12:24:13;37.17;;;30.20;;
21615;SDS011;10970;48.714;9.584;2022-08-19T12:26:40;40.67;;;31.47;;
21615;SDS011;10970;48.714;9.584;2022-08-19T12:29:06;39.37;;;31.93;;
21615;SDS011;10970;48.714;9.584;2022-08-19T12:31:33;34.53;;;29.10;;
21615;SDS011;10970;48.714;9.584;2022-08-19T12:33:59;40.43;;;30.37;;
21615;SDS011;10970;48.714;9.584;2022-08-19T12:36:25;36.73;;;31.33;;
21615;SDS011;10970;48.714;9.584;2022-08-19T12:38:51;36.93;;;29.53;;
21615;SDS011;10970;48.714;9.584;2022-08-19T12:41:17;33.13;;;29.47;;
21615;SDS011;10970;48.714;9.584;2022-08-19T12:43:44;36.57;;;31.00;;
21615;SDS011;10970;48.714;9.584;2022-08-19T12:46:10;33.80;;;27.20;;
21615;SDS011;10970;48.714;9.584;2022-08-19T12:48:37;36.17;;;30.60;;
21615;SDS011;10970;48.714;9.584;2022-08-19T12:51:07;43.80;;;31.60;;
21615;SDS011;10970;48.714;9.584;2022-08-19T12:53:35;42.27;;;33.93;;
21615;SDS011;10970;48.714;9.584;2022-08-19T12:56:00;36.40;;;32.40;;
21615;SDS011;10970;48.714;9.584;2022-08-19T12:58:26;39.27;;;30.17;;
21615;SDS011;10970;48.714;9.584;2022-08-19T13:00:53;35.70;;;29.50;;
21615;SDS011;10970;48.714;9.584;2022-08-19T13:03:19;37.97;;;31.70;;
21615;SDS011;10970;48.714;9.584;2022-08-19T13:05:47;40.20;;;32.40;;
21615;SDS011;10970;48.714;9.584;2022-08-19T13:08:15;39.10;;;29.80;;
21615;SDS011;10970;48.714;9.584;2022-08-19T13:10:42;35.80;;;29.93;;
21615;SDS011;10970;48.714;9.584;2022-08-19T13:13:08;32.13;;;28.40;;
21615;SDS011;10970;48.714;9.584;2022-08-19T13:15:35;32.43;;;27.47;;
21615;SDS011;10970;48.714;9.584;2022-08-19T13:18:02;33.53;;;28.57;;
21615;SDS011;10970;48.714;9.584;2022-08-19T13:20:28;38.07;;;30.10;;
21615;SDS011;10970;48.714;9.584;2022-08-19T13:22:54;34.60;;;29.27;;
21615;SDS011;10970;48.714;9.584;2022-08-19T13:25:20;33.97;;;28.20;;
21615;SDS011;10970;48.714;9.584;2022-08-19T13:27:47;35.53;;;28.17;;
21615;SDS011;10970;48.714;9.584;2022-08-19T13:30:14;35.47;;;28.77;;
21615;SDS011;10970;48.714;9.584;2022-08-19T13:33:00;34.60;;;28.23;;
21615;SDS011;10970;48.714;9.584;2022-08-19T13:35:36;33.20;;;27.57;;
21615;SDS011;10970;48.714;9.584;2022-08-19T13:38:26;32.77;;;27.30;;
21615;SDS011;10970;48.714;9.584;2022-08-19T13:40:53;33.87;;;26.60;;
21615;SDS011;10970;48.714;9.584;2022-08-19T13:43:20;30.43;;;27.40;;
21615;SDS011;10970;48.714;9.584;2022-08-19T13:45:48;31.13;;;25.57;;
21615;SDS011;10970;48.714;9.584;2022-08-19T13:48:15;34.60;;;30.17;;
21615;SDS011;10970;48.714;9.584;2022-08-19T13:50:42;37.43;;;29.43;;
21615;SDS011;10970;48.714;9.584;2022-08-19T13:53:13;36.43;;;29.60;;
21615;SDS011;10970;48.714;9.584;2022-08-19T13:55:40;35.90;;;29.17;;
21615;SDS011;10970;48.714;9.584;2022-08-19T13:58:07;35.13;;;30.90;;
21615;SDS011;10970;48.714;9.584;2022-08-19T14:00:35;32.77;;;28.30;;
21615;SDS011;10970;48.714;9.584;2022-08-19T14:03:03;29.50;;;26.40;;
21615;SDS011;10970;48.714;9.584;2022-08-19T14:05:29;38.20;;;29.60;;
21615;SDS011;10970;48.714;9.584;2022-08-19T14:07:56;29.97;;;26.23;;
21615;SDS011;10970;48.714;9.584;2022-08-19T14:10:22;32.20;;;27.70;;
21615;SDS011;10970;48.714;9.584;2022-08-19T14:12:48;33.00;;;27.03;;
21615;SDS011;10970;48.714;9.584;2022-08-19T14:15:14;29.93;;;26.73;;
21615;SDS011;10970;48.714;9.584;2022-08-19T14:17:41;29.87;;;25.20;;
21615;SDS011;10970;48.714;9.584;2022-08-19T14:20:09;34.67;;;26.07;;
21615;SDS011;10970;48.714;9.584;2022-08-19T14:22:37;30.70;;;25.80;;
21615;SDS011;10970;48.714;9.584;2022-08-19T14:25:06;31.57;;;26.30;;
21615;SDS011;10970;48.714;9.584;2022-08-19T14:27:36;30.57;;;25.50;;
21615;SDS011;10970;48.714;9.584;2022-08-19T14:30:05;32.23;;;27.60;;
21615;SDS011;10970;48.714;9.584;2022-08-19T14:32:33;28.87;;;25.60;;
21615;SDS011;10970;48.714;9.584;2022-08-19T14:35:00;31.50;;;26.30;;
21615;SDS011;10970;48.714;9.584;2022-08-19T14:37:26;34.80;;;26.43;;
21615;SDS011;10970;48.714;9.584;2022-08-19T14:39:52;31.10;;;26.50;;
21615;SDS011;10970;48.714;9.584;2022-08-19T14:42:18;29.67;;;26.47;;